Plains, Texas
Current Conditions -  °F | °C
As of 3:15 AM on Thursday 18 Dec 2014 (Local Time) from KGNC Reporting Station
Clear Clear  
Wind Chill: 32°   Ceiling: Unl
Heat Index: 38°   Visibility: 10mi
Dew Point: 30°   Wind: 7mph
Humidity: 74%   Direction: 300°WNW
Pressure: 30.07"   Gusts: NA
Location:  33.19°N, 102.83°W
Report Text: KGNC 180915Z AUTO 30006KT 10SM CLR 03/M01 A3007 RMK AO2 T00311011
Loading
Personal Weather Stations






























Interactive Weather Map New forecast layout! Learn more

10-Day Weather Forecast

Advertisements
Track Severe Weather on mobile